Terminal Aerodrome Forecast
Issued by NWS Sterling, VA

Current Version | Previous Version | Graphics & Text | Print | Product List | Glossary On
Versions: 1 2 3 4 5 6 7 8 9 10 11 12 13 14 15 16 17 18 19 20 21 22 23 24 25 26 27 28
000
FTUS41 KLWX 060834 AAA
TAFDCA
TAF AMD
KDCA 060834Z 0609/0706 VRB04KT 6SM BR SCT120
     FM061100 04005KT P6SM BKN070
     FM062000 09008KT P6SM VCSH BKN040
     FM062300 11008KT P6SM BKN090=

USA.gov is the U.S. government's official web portal to all federal, state and local government web resources and services.